createdAt,value
2023-01-29T00:00:27.270Z,102432.34
2023-01-29T00:02:53.708Z,102435.81
2023-01-29T00:05:27.772Z,102433.19
2023-01-29T00:07:55.998Z,102421.81
2023-01-29T00:10:22.897Z,102424.53
2023-01-29T00:12:49.302Z,102417.56
2023-01-29T00:15:15.820Z,102425.53
2023-01-29T00:17:42.213Z,102420.34
2023-01-29T00:20:09.375Z,102414.22
2023-01-29T00:22:35.760Z,102411.66
2023-01-29T00:25:02.347Z,102403.69
2023-01-29T00:27:29.278Z,102388.81
2023-01-29T00:29:55.692Z,102380.81
2023-01-29T00:32:22.141Z,102380.78
2023-01-29T00:34:48.635Z,102377.31
2023-01-29T00:37:15.063Z,102374.63
2023-01-29T00:39:47.768Z,102366.81
2023-01-29T00:42:14.655Z,102372.06
2023-01-29T00:44:41.073Z,102372.94
2023-01-29T00:47:07.486Z,102373.91
2023-01-29T00:49:33.914Z,102374.75
2023-01-29T00:52:00.314Z,102376.56
2023-01-29T00:54:26.692Z,102382.81
2023-01-29T00:56:53.099Z,102375.66
2023-01-29T00:59:19.503Z,102388.84
2023-01-29T01:01:45.989Z,102387.22
2023-01-29T01:04:12.623Z,102392.44
2023-01-29T01:06:39.789Z,102385.41
2023-01-29T01:09:06.374Z,102392.41
2023-01-29T01:11:33.578Z,102384.50
2023-01-29T01:13:59.963Z,102387.19
2023-01-29T01:16:26.386Z,102381.97
2023-01-29T01:18:52.759Z,102383.69
2023-01-29T01:21:19.168Z,102381.09
2023-01-29T01:23:45.572Z,102385.56
2023-01-29T01:26:11.973Z,102387.31
2023-01-29T01:28:38.406Z,102383.00
2023-01-29T01:31:11.377Z,102387.47
2023-01-29T01:33:38.124Z,102397.97
2023-01-29T01:36:05.067Z,102398.72
2023-01-29T01:38:31.482Z,102393.38
2023-01-29T01:40:57.903Z,102397.72
2023-01-29T01:43:24.311Z,102392.50
2023-01-29T01:45:50.718Z,102391.69
2023-01-29T01:48:23.940Z,102390.84
2023-01-29T01:50:56.222Z,102385.56
2023-01-29T01:53:44.398Z,102377.69
2023-01-29T01:56:16.225Z,102389.09
2023-01-29T01:58:44.725Z,102384.69
2023-01-29T02:01:11.216Z,102381.25
2023-01-29T02:03:41.527Z,102380.44
2023-01-29T02:06:07.916Z,102379.56
2023-01-29T02:08:49.506Z,102378.66
2023-01-29T02:11:15.971Z,102372.50
2023-01-29T02:13:42.380Z,102376.97
2023-01-29T02:16:08.774Z,102377.91
2023-01-29T02:18:35.197Z,102373.38
2023-01-29T02:21:25.896Z,102369.81
2023-01-29T02:24:06.295Z,102372.53
2023-01-29T02:27:10.807Z,102367.22
2023-01-29T02:29:49.635Z,102357.56
2023-01-29T02:32:21.890Z,102356.63
2023-01-29T02:35:16.046Z,102360.97
2023-01-29T02:38:33.857Z,102357.53
2023-01-29T02:41:13.742Z,102348.81
2023-01-29T02:43:46.487Z,102345.25
2023-01-29T02:46:34.716Z,102345.41
2023-01-29T02:49:24.292Z,102341.00
2023-01-29T02:51:51.977Z,102347.03
2023-01-29T02:54:47.575Z,102339.97
2023-01-29T02:57:20.309Z,102328.56
2023-01-29T02:59:55.785Z,102324.28
2023-01-29T03:02:26.543Z,102323.44
2023-01-29T03:04:57.483Z,102317.31
2023-01-29T03:07:26.687Z,102308.56
2023-01-29T03:09:53.077Z,102298.88
2023-01-29T03:12:28.512Z,102292.66
2023-01-29T03:14:54.922Z,102295.44
2023-01-29T03:17:22.485Z,102287.47
2023-01-29T03:19:48.884Z,102270.63
2023-01-29T03:22:15.309Z,102283.09
2023-01-29T03:24:58.036Z,102282.06
2023-01-29T03:27:40.502Z,102276.81
2023-01-29T03:30:07.595Z,102275.91
2023-01-29T03:32:34.004Z,102279.44
2023-01-29T03:35:02.090Z,102285.56
2023-01-29T03:37:45.145Z,102277.72
2023-01-29T03:40:11.977Z,102284.72
2023-01-29T03:43:10.794Z,102279.44
2023-01-29T03:45:58.404Z,102280.28
2023-01-29T03:48:24.637Z,102280.25
2023-01-29T03:51:05.030Z,102280.28
2023-01-29T03:53:57.521Z,102276.81
2023-01-29T03:56:38.067Z,102275.94
2023-01-29T03:59:23.370Z,102280.38
2023-01-29T04:01:53.317Z,102277.56
2023-01-29T04:04:19.578Z,102269.66
2023-01-29T04:06:46.417Z,102271.44
2023-01-29T04:09:14.779Z,102266.97
2023-01-29T04:11:45.499Z,102262.59
2023-01-29T04:14:11.948Z,102265.31
2023-01-29T04:16:40.748Z,102260.06
2023-01-29T04:19:07.218Z,102266.19
2023-01-29T04:21:34.502Z,102264.34
2023-01-29T04:24:00.949Z,102258.19
2023-01-29T04:26:27.219Z,102250.28
2023-01-29T04:29:05.563Z,102264.41
2023-01-29T04:31:34.691Z,102252.06
2023-01-29T04:34:10.002Z,102249.44
2023-01-29T04:36:57.600Z,102260.88
2023-01-29T04:39:30.074Z,102253.81
2023-01-29T04:42:05.838Z,102255.50
2023-01-29T04:44:50.431Z,102260.78
2023-01-29T04:47:36.737Z,102261.66
2023-01-29T04:50:16.069Z,102273.13
2023-01-29T04:52:57.779Z,102273.94
2023-01-29T04:55:38.639Z,102278.34
2023-01-29T04:58:22.792Z,102276.50
2023-01-29T05:00:49.890Z,102276.53
2023-01-29T05:03:16.421Z,102278.34
2023-01-29T05:05:45.332Z,102268.63
2023-01-29T05:08:13.527Z,102258.91
2023-01-29T05:10:39.941Z,102244.88
2023-01-29T05:13:06.852Z,102250.97
2023-01-29T05:15:37.113Z,102258.88
2023-01-29T05:18:04.151Z,102245.72
2023-01-29T05:20:33.383Z,102236.91
2023-01-29T05:22:59.801Z,102244.75
2023-01-29T05:25:28.197Z,102241.25
2023-01-29T05:27:54.615Z,102244.72
2023-01-29T05:30:20.996Z,102238.63
2023-01-29T05:32:47.410Z,102241.25
2023-01-29T05:35:13.829Z,102242.03
2023-01-29T05:37:40.222Z,102237.66
2023-01-29T05:40:07.221Z,102234.13
2023-01-29T05:42:33.596Z,102230.66
2023-01-29T05:45:00.010Z,102216.53
2023-01-29T05:47:26.412Z,102219.09
2023-01-29T05:49:52.868Z,102227.88
2023-01-29T05:52:19.284Z,102241.00
2023-01-29T05:54:45.696Z,102243.66
2023-01-29T05:57:12.086Z,102240.22
2023-01-29T05:59:38.491Z,102248.97
2023-01-29T06:02:04.937Z,102241.09
2023-01-29T06:04:31.364Z,102243.72
2023-01-29T06:06:57.763Z,102227.00
2023-01-29T06:09:24.301Z,102228.78
2023-01-29T06:11:50.704Z,102230.56
2023-01-29T06:14:17.107Z,102239.31
2023-01-29T06:16:43.491Z,102214.75
2023-01-29T06:19:09.878Z,102198.06
2023-01-29T06:21:36.274Z,102206.88
2023-01-29T06:24:02.792Z,102198.13
2023-01-29T06:26:29.210Z,102201.56
2023-01-29T06:28:55.672Z,102197.00
2023-01-29T06:31:37.238Z,102203.31
2023-01-29T06:34:04.046Z,102193.59
2023-01-29T06:36:30.454Z,102189.25
2023-01-29T06:38:56.831Z,102185.69
2023-01-29T06:41:23.236Z,102175.09
2023-01-29T06:43:49.629Z,102164.59
2023-01-29T06:46:16.048Z,102169.81
2023-01-29T06:48:42.484Z,102179.38
2023-01-29T06:51:09.687Z,102194.28
2023-01-29T06:53:36.783Z,102183.75
2023-01-29T06:56:03.820Z,102165.25
2023-01-29T06:58:30.253Z,102164.44
2023-01-29T07:01:09.839Z,102169.69
2023-01-29T07:03:36.293Z,102169.72
2023-01-29T07:06:02.793Z,102171.47
2023-01-29T07:08:29.176Z,102165.41
2023-01-29T07:11:01.897Z,102162.75
2023-01-29T07:13:28.319Z,102167.13
2023-01-29T07:15:54.924Z,102168.88
2023-01-29T07:18:21.357Z,102188.03
2023-01-29T07:20:47.766Z,102186.28
2023-01-29T07:23:14.283Z,102183.56
2023-01-29T07:25:40.877Z,102179.03
2023-01-29T07:28:07.300Z,102184.19
2023-01-29T07:30:33.798Z,102181.47
2023-01-29T07:33:07.647Z,102175.28
2023-01-29T07:35:41.597Z,102163.81
2023-01-29T07:38:11.273Z,102163.72
2023-01-29T07:40:37.700Z,102163.69
2023-01-29T07:43:05.491Z,102159.19
2023-01-29T07:45:33.248Z,102153.88
2023-01-29T07:47:59.667Z,102149.44
2023-01-29T07:50:26.373Z,102154.72
2023-01-29T07:52:55.795Z,102138.06
2023-01-29T07:55:22.267Z,102144.19
2023-01-29T07:57:48.660Z,102149.44
2023-01-29T08:00:15.845Z,102149.50
2023-01-29T08:02:42.528Z,102150.38
2023-01-29T08:05:09.255Z,102149.53
2023-01-29T08:07:35.714Z,102153.13
2023-01-29T08:10:02.150Z,102135.63
2023-01-29T08:12:28.584Z,102140.03
2023-01-29T08:14:54.992Z,102140.13
2023-01-29T08:17:21.416Z,102147.97
2023-01-29T08:19:47.855Z,102135.69
2023-01-29T08:22:14.259Z,102124.44
2023-01-29T08:24:53.630Z,102129.66
2023-01-29T08:27:26.361Z,102128.81
2023-01-29T08:29:52.781Z,102138.59
2023-01-29T08:32:19.165Z,102136.03
2023-01-29T08:34:45.543Z,102129.06
2023-01-29T08:37:11.964Z,102138.78
2023-01-29T08:39:38.378Z,102130.00
2023-01-29T08:42:04.836Z,102120.34
2023-01-29T08:44:31.214Z,102123.00
2023-01-29T08:46:57.620Z,102118.75
2023-01-29T08:49:24.016Z,102123.16
2023-01-29T08:51:50.413Z,102119.72
2023-01-29T08:54:17.272Z,102118.91
2023-01-29T08:56:43.676Z,102121.63
2023-01-29T08:59:10.369Z,102127.81
2023-01-29T09:01:36.825Z,102122.53
2023-01-29T09:04:03.228Z,102127.03
2023-01-29T09:06:29.686Z,102120.06
2023-01-29T09:08:56.090Z,102136.03
2023-01-29T09:11:22.511Z,102123.78
2023-01-29T09:13:48.951Z,102131.75
2023-01-29T09:16:15.610Z,102131.84
2023-01-29T09:18:42.118Z,102129.28
2023-01-29T09:21:08.548Z,102134.75
2023-01-29T09:23:35.022Z,102131.31
2023-01-29T09:26:01.573Z,102126.09
2023-01-29T09:28:28.189Z,102129.72
2023-01-29T09:30:54.690Z,102120.97
2023-01-29T09:33:21.154Z,102118.31
2023-01-29T09:35:47.543Z,102110.47
2023-01-29T09:38:14.100Z,102105.25
2023-01-29T09:41:07.410Z,102111.34
2023-01-29T09:43:57.986Z,102103.47
2023-01-29T09:46:38.571Z,102100.09
2023-01-29T09:49:17.130Z,102093.88
2023-01-29T09:51:46.129Z,102091.19
2023-01-29T09:54:22.316Z,102092.13
2023-01-29T09:56:48.735Z,102085.13
2023-01-29T09:59:15.165Z,102080.72
2023-01-29T10:01:44.604Z,102083.41
2023-01-29T10:04:32.762Z,102071.03
2023-01-29T10:07:40.760Z,102066.66
2023-01-29T10:10:54.248Z,102056.13
2023-01-29T10:13:32.931Z,102050.03
2023-01-29T10:16:13.697Z,102042.13
2023-01-29T10:19:03.046Z,102043.03
2023-01-29T10:21:43.542Z,102043.94
2023-01-29T10:24:24.299Z,102031.63
2023-01-29T10:26:51.665Z,102033.41
2023-01-29T10:29:19.358Z,102030.84
2023-01-29T10:31:47.032Z,102025.56
2023-01-29T10:34:23.779Z,102019.41
2023-01-29T10:36:50.178Z,102015.03
2023-01-29T10:39:21.090Z,102020.34
2023-01-29T10:42:24.835Z,102017.84
2023-01-29T10:45:03.828Z,102011.63
2023-01-29T10:47:47.035Z,101999.28
2023-01-29T10:50:34.570Z,102000.19
2023-01-29T10:53:37.568Z,101992.31
2023-01-29T10:56:31.928Z,101987.97
2023-01-29T10:59:04.557Z,101982.69
2023-01-29T11:01:34.149Z,101984.50
2023-01-29T11:04:01.811Z,101984.59
2023-01-29T11:06:33.246Z,101981.97
2023-01-29T11:09:27.423Z,101979.31
2023-01-29T11:12:11.483Z,101977.53
2023-01-29T11:14:56.606Z,101977.59
2023-01-29T11:17:23.933Z,101981.09
2023-01-29T11:19:51.383Z,101968.88
2023-01-29T11:22:25.325Z,101965.31
2023-01-29T11:25:18.882Z,101973.25
2023-01-29T11:27:46.641Z,101971.47
2023-01-29T11:30:37.554Z,101962.72
2023-01-29T11:33:17.292Z,101959.16
2023-01-29T11:35:43.912Z,101958.28
2023-01-29T11:38:16.393Z,101947.78
2023-01-29T11:40:42.964Z,101946.94
2023-01-29T11:43:12.120Z,101955.81
2023-01-29T11:45:39.068Z,101934.66
2023-01-29T11:48:05.576Z,101923.28
2023-01-29T11:50:33.077Z,101930.34
2023-01-29T11:52:59.822Z,101923.28
2023-01-29T11:55:49.403Z,101906.47
2023-01-29T11:58:25.872Z,101920.69
2023-01-29T12:00:52.287Z,101921.59
2023-01-29T12:03:25.277Z,101912.81
2023-01-29T12:06:00.221Z,101907.50
2023-01-29T12:08:27.055Z,101903.06
2023-01-29T12:10:53.502Z,101902.25
2023-01-29T12:13:27.249Z,101892.56
2023-01-29T12:16:31.068Z,101886.41
2023-01-29T12:19:23.743Z,101894.38
2023-01-29T12:22:18.607Z,101882.00
2023-01-29T12:24:59.261Z,101874.19
2023-01-29T12:27:53.239Z,101868.03
2023-01-29T12:30:22.357Z,101864.50
2023-01-29T12:32:49.822Z,101858.28
2023-01-29T12:35:20.507Z,101859.13
2023-01-29T12:38:15.551Z,101852.09
2023-01-29T12:40:51.496Z,101845.88
2023-01-29T12:43:19.493Z,101838.84
2023-01-29T12:45:50.926Z,101838.78
2023-01-29T12:48:21.715Z,101830.94
2023-01-29T12:50:48.095Z,101824.75
2023-01-29T12:53:35.320Z,101826.47
2023-01-29T12:56:13.639Z,101812.34
2023-01-29T12:58:43.582Z,101811.50
2023-01-29T13:01:20.784Z,101806.28
2023-01-29T13:03:53.620Z,101808.84
2023-01-29T13:06:26.638Z,101795.66
2023-01-29T13:08:55.523Z,101794.78
2023-01-29T13:11:45.411Z,101781.56
2023-01-29T13:14:45.893Z,101786.88
2023-01-29T13:17:35.291Z,101786.88
2023-01-29T13:20:05.142Z,101783.41
2023-01-29T13:22:36.938Z,101778.13
2023-01-29T13:25:05.665Z,101771.03
2023-01-29T13:27:33.907Z,101772.00
2023-01-29T13:30:00.359Z,101773.78
2023-01-29T13:32:28.025Z,101768.56
2023-01-29T13:35:03.313Z,101772.03
2023-01-29T13:37:32.573Z,101766.81
2023-01-29T13:39:59.935Z,101760.63
2023-01-29T13:42:37.644Z,101765.00
2023-01-29T13:45:05.808Z,101762.38
2023-01-29T13:47:34.059Z,101752.66
2023-01-29T13:50:01.546Z,101743.84
2023-01-29T13:52:33.858Z,101749.16
2023-01-29T13:55:19.488Z,101744.78
2023-01-29T13:57:45.999Z,101738.59
2023-01-29T14:00:21.446Z,101729.84
2023-01-29T14:02:59.956Z,101732.50
2023-01-29T14:05:41.429Z,101727.25
2023-01-29T14:08:13.888Z,101721.91
2023-01-29T14:10:41.384Z,101721.06
2023-01-29T14:13:16.963Z,101721.03
2023-01-29T14:15:46.919Z,101709.66
2023-01-29T14:18:15.947Z,101709.63
2023-01-29T14:20:48.664Z,101704.41
2023-01-29T14:23:24.372Z,101700.00
2023-01-29T14:25:50.869Z,101694.69
2023-01-29T14:28:21.236Z,101692.00
2023-01-29T14:30:48.154Z,101677.94
2023-01-29T14:33:33.958Z,101675.28
2023-01-29T14:36:03.119Z,101687.69
2023-01-29T14:38:29.587Z,101674.50
2023-01-29T14:41:08.903Z,101672.72
2023-01-29T14:43:35.306Z,101667.44
2023-01-29T14:46:35.528Z,101673.63
2023-01-29T14:49:01.933Z,101676.22
2023-01-29T14:51:32.421Z,101666.56
2023-01-29T14:54:27.925Z,101668.34
2023-01-29T14:56:57.772Z,101665.63
2023-01-29T14:59:34.782Z,101670.06
2023-01-29T15:02:05.395Z,101655.94
2023-01-29T15:04:41.693Z,101658.53
2023-01-29T15:07:14.800Z,101655.03
2023-01-29T15:09:48.109Z,101654.16
2023-01-29T15:12:32.530Z,101651.50
2023-01-29T15:15:08.372Z,101649.72
2023-01-29T15:17:50.263Z,101648.00
2023-01-29T15:20:36.093Z,101642.72
2023-01-29T15:23:02.773Z,101635.69
2023-01-29T15:25:47.343Z,101633.03
2023-01-29T15:28:13.752Z,101630.41
2023-01-29T15:30:40.272Z,101629.50
2023-01-29T15:33:07.727Z,101618.94
2023-01-29T15:35:35.397Z,101617.19
2023-01-29T15:38:06.852Z,101609.25
2023-01-29T15:40:33.812Z,101603.09
2023-01-29T15:43:00.209Z,101595.16
2023-01-29T15:45:30.865Z,101601.31
2023-01-29T15:48:05.810Z,101596.91
2023-01-29T15:50:33.280Z,101595.16
2023-01-29T15:53:01.028Z,101580.13
2023-01-29T15:55:27.529Z,101576.63
2023-01-29T15:57:53.926Z,101566.06
2023-01-29T16:00:29.443Z,101574.84
2023-01-29T16:02:57.782Z,101565.19
2023-01-29T16:05:27.359Z,101572.25
2023-01-29T16:07:54.105Z,101572.19
2023-01-29T16:10:28.313Z,101567.78
2023-01-29T16:12:54.765Z,101560.75
2023-01-29T16:15:34.300Z,101569.53
2023-01-29T16:18:03.617Z,101580.06
2023-01-29T16:20:35.067Z,101561.56
2023-01-29T16:23:03.569Z,101566.81
2023-01-29T16:25:29.985Z,101569.44
2023-01-29T16:27:57.294Z,101573.78
2023-01-29T16:30:28.171Z,101561.44
2023-01-29T16:33:01.419Z,101559.69
2023-01-29T16:35:27.829Z,101558.78
2023-01-29T16:37:54.263Z,101558.78
2023-01-29T16:40:31.813Z,101561.44
2023-01-29T16:43:18.428Z,101557.03
2023-01-29T16:46:03.242Z,101558.75
2023-01-29T16:48:33.931Z,101550.81
2023-01-29T16:51:12.116Z,101542.88
2023-01-29T16:53:38.521Z,101525.31
2023-01-29T16:56:06.981Z,101527.06
2023-01-29T16:58:33.463Z,101527.06
2023-01-29T17:01:11.382Z,101533.19
2023-01-29T17:03:38.256Z,101518.25
2023-01-29T17:06:19.184Z,101513.88
2023-01-29T17:08:54.592Z,101516.53
2023-01-29T17:11:37.561Z,101501.56
2023-01-29T17:14:07.341Z,101492.78
2023-01-29T17:16:40.026Z,101496.25
2023-01-29T17:19:14.747Z,101508.59
2023-01-29T17:21:41.149Z,101502.38
2023-01-29T17:24:07.669Z,101500.66
2023-01-29T17:26:34.430Z,101502.38
2023-01-29T17:29:00.929Z,101495.34
2023-01-29T17:31:27.425Z,101480.41
2023-01-29T17:33:53.855Z,101478.63
2023-01-29T17:36:20.346Z,101475.09
2023-01-29T17:38:46.750Z,101479.50
2023-01-29T17:41:22.783Z,101475.94
2023-01-29T17:43:49.169Z,101469.75
2023-01-29T17:46:16.506Z,101471.53
2023-01-29T17:48:43.077Z,101461.84
2023-01-29T17:51:11.975Z,101460.06
2023-01-29T17:53:46.870Z,101452.13
2023-01-29T17:56:18.390Z,101445.94
2023-01-29T17:58:44.785Z,101442.41
2023-01-29T18:01:13.510Z,101444.22
2023-01-29T18:03:40.020Z,101441.59
2023-01-29T18:06:07.535Z,101438.06
2023-01-29T18:08:35.478Z,101427.47
2023-01-29T18:11:01.899Z,101422.22
2023-01-29T18:13:28.407Z,101430.16
2023-01-29T18:15:54.864Z,101414.38
2023-01-29T18:18:22.488Z,101414.34
2023-01-29T18:20:49.561Z,101413.50
2023-01-29T18:23:16.056Z,101395.06
2023-01-29T18:25:42.565Z,101390.56
2023-01-29T18:28:16.234Z,101380.06
2023-01-29T18:30:44.512Z,101369.50
2023-01-29T18:33:11.109Z,101368.59
2023-01-29T18:35:37.518Z,101366.84
2023-01-29T18:38:03.920Z,101357.19
2023-01-29T18:40:33.288Z,101357.16
2023-01-29T18:42:59.756Z,101365.94
2023-01-29T18:45:27.298Z,101338.66
2023-01-29T18:47:54.096Z,101350.09
2023-01-29T18:50:20.649Z,101343.06
2023-01-29T18:52:47.162Z,101342.19
2023-01-29T18:55:13.731Z,101326.41
2023-01-29T18:58:26.380Z,101315.81
2023-01-29T19:00:27.937Z,101312.34
2023-01-29T19:02:54.320Z,101307.03
2023-01-29T19:05:22.259Z,101303.59
2023-01-29T19:07:48.739Z,101315.00
2023-01-29T19:10:15.433Z,101293.91
2023-01-29T19:12:41.861Z,101295.69
2023-01-29T19:15:08.990Z,101298.31
2023-01-29T19:17:35.687Z,101286.00
2023-01-29T19:20:03.773Z,101284.25
2023-01-29T19:22:31.401Z,101275.47
2023-01-29T19:24:57.801Z,101289.53
2023-01-29T19:27:24.322Z,101276.34
2023-01-29T19:29:50.724Z,101270.19
2023-01-29T19:32:17.149Z,101264.03
2023-01-29T19:34:45.166Z,101250.88
2023-01-29T19:37:11.649Z,101257.91
2023-01-29T19:39:38.044Z,101248.28
2023-01-29T19:42:04.475Z,101247.38
2023-01-29T19:44:30.889Z,101232.47
2023-01-29T19:46:57.280Z,101230.72
2023-01-29T19:49:24.980Z,101223.66
2023-01-29T19:51:51.401Z,101223.66
2023-01-29T19:54:17.847Z,101225.41
2023-01-29T19:56:44.232Z,101230.75
2023-01-29T19:59:10.938Z,101231.63
2023-01-29T20:01:37.359Z,101227.22
2023-01-29T20:04:03.870Z,101227.22
2023-01-29T20:06:30.265Z,101221.09
2023-01-29T20:08:56.861Z,101221.97
2023-01-29T20:11:23.459Z,101219.31
2023-01-29T20:13:50.668Z,101205.25
2023-01-29T20:16:17.494Z,101208.78
2023-01-29T20:18:44.075Z,101200.00
2023-01-29T20:21:11.926Z,101195.59
2023-01-29T20:23:38.944Z,101192.97
2023-01-29T20:26:10.845Z,101184.19
2023-01-29T20:28:37.307Z,101180.69
2023-01-29T20:31:04.524Z,101180.69
2023-01-29T20:33:31.121Z,101184.19
2023-01-29T20:35:58.689Z,101184.19
2023-01-29T20:38:25.272Z,101176.28
2023-01-29T20:40:51.680Z,101171.03
2023-01-29T20:43:18.071Z,101155.16
2023-01-29T20:45:44.523Z,101144.63
2023-01-29T20:48:11.044Z,101139.38
2023-01-29T20:50:37.480Z,101136.72
2023-01-29T20:53:03.902Z,101142.00
2023-01-29T20:55:30.460Z,101146.41
2023-01-29T20:58:06.368Z,101120.03
2023-01-29T21:00:33.801Z,101136.75
2023-01-29T21:03:00.244Z,101131.47
2023-01-29T21:05:26.679Z,101110.38
2023-01-29T21:07:53.083Z,101111.25
2023-01-29T21:10:19.766Z,101095.44
2023-01-29T21:12:46.375Z,101095.47
2023-01-29T21:15:12.798Z,101072.63
2023-01-29T21:17:39.214Z,101093.72
2023-01-29T21:20:06.076Z,101087.56
2023-01-29T21:22:32.473Z,101082.31
2023-01-29T21:24:58.884Z,101073.50
2023-01-29T21:27:25.291Z,101076.16
2023-01-29T21:29:51.696Z,101075.28
2023-01-29T21:32:18.100Z,101068.25
2023-01-29T21:34:44.501Z,101055.03
2023-01-29T21:37:10.927Z,101066.47
2023-01-29T21:39:37.316Z,101048.03
2023-01-29T21:42:04.064Z,101046.28
2023-01-29T21:44:31.066Z,101040.13
2023-01-29T21:46:57.486Z,101041.88
2023-01-29T21:49:23.930Z,101048.91
2023-01-29T21:51:50.521Z,101038.38
2023-01-29T21:54:16.907Z,101043.63
2023-01-29T21:56:43.340Z,101035.72
2023-01-29T21:59:09.727Z,101039.25
2023-01-29T22:01:38.675Z,101049.81
2023-01-29T22:04:05.496Z,101036.59
2023-01-29T22:06:31.913Z,101052.44
2023-01-29T22:08:58.329Z,101021.69
2023-01-29T22:11:25.023Z,101023.41
2023-01-29T22:13:51.478Z,101011.97
2023-01-29T22:16:17.872Z,101013.75
2023-01-29T22:18:44.308Z,101002.34
2023-01-29T22:21:10.690Z,100982.09
2023-01-29T22:23:38.003Z,100973.28
2023-01-29T22:26:05.304Z,100975.06
2023-01-29T22:28:31.747Z,100985.63
2023-01-29T22:31:02.039Z,100979.44
2023-01-29T22:33:28.490Z,100978.56
2023-01-29T22:35:55.102Z,100969.78
2023-01-29T22:38:21.601Z,100956.59
2023-01-29T22:40:54.544Z,100964.50
2023-01-29T22:43:21.339Z,100955.72
2023-01-29T22:45:47.722Z,100942.50
2023-01-29T22:48:14.417Z,100940.75
2023-01-29T22:50:41.005Z,100928.44
2023-01-29T22:53:07.468Z,100931.13
2023-01-29T22:55:33.853Z,100910.84
2023-01-29T22:58:00.349Z,100897.69
2023-01-29T23:00:26.731Z,100882.72
2023-01-29T23:02:53.140Z,100881.00
2023-01-29T23:05:19.528Z,100873.97
2023-01-29T23:07:45.928Z,100859.00
2023-01-29T23:10:15.374Z,100853.72
2023-01-29T23:12:42.285Z,100844.94
2023-01-29T23:15:08.879Z,100824.72
2023-01-29T23:17:35.282Z,100834.34
2023-01-29T23:20:01.698Z,100815.03
2023-01-29T23:22:28.083Z,100810.66
2023-01-29T23:24:54.471Z,100800.09
2023-01-29T23:27:20.885Z,100787.78
2023-01-29T23:29:47.801Z,100786.03
2023-01-29T23:32:19.012Z,100775.50
2023-01-29T23:34:45.461Z,100767.56
2023-01-29T23:37:11.902Z,100773.72
2023-01-29T23:39:38.333Z,100755.25
2023-01-29T23:42:04.798Z,100757.91
2023-01-29T23:44:31.228Z,100764.91
2023-01-29T23:46:57.688Z,100742.91
2023-01-29T23:49:24.116Z,100739.41
2023-01-29T23:51:50.625Z,100745.53
2023-01-29T23:54:17.252Z,100747.31
2023-01-29T23:56:43.984Z,100747.31
2023-01-29T23:59:10.581Z,100749.03
